Time;durP1;ratioP1;P1;durP2;ratioP2;P2;SDS_P1;SDS_P2;PMS_P1;PMS_P2;Temp;Humidity;BMP_temperature;BMP_pressure;BME280_temperature;BME280_humidity;BME280_pressure;Samples;Min_cycle;Max_cycle;Signal;HPM_P1;HPM_P2
2021/12/16 00:02:30;;;;;;;37.47;19.10;;;9.50;99.90;;;;;;5115231;28;20203;-77
2021/12/16 00:05:14;;;;;;;35.27;19.93;;;9.50;99.90;;;;;;5113219;28;20329;-77
2021/12/16 00:07:54;;;;;;;37.00;20.27;;;9.50;99.90;;;;;;5114412;28;20643;-76
2021/12/16 00:10:36;;;;;;;38.80;21.50;;;9.50;99.90;;;;;;5108222;28;20201;-77
2021/12/16 00:34:54;;;;;;;39.47;21.27;;;9.50;99.90;;;;;;5114259;28;20201;-77
2021/12/16 00:37:19;;;;;;;40.67;21.67;;;9.50;99.90;;;;;;5114373;28;20164;-77
2021/12/16 00:39:46;;;;;;;36.90;20.57;;;9.50;99.90;;;;;;5110750;28;20173;-76
2021/12/16 00:42:27;;;;;;;42.73;21.77;;;9.50;99.90;;;;;;5106542;28;20169;-77
2021/12/16 00:45:19;;;;;;;39.50;20.63;;;9.50;99.90;;;;;;5112463;28;20201;-76
2021/12/16 00:55:57;;;;;;;41.23;22.03;;;9.50;99.90;;;;;;5113864;28;20218;-77
2021/12/16 00:58:29;;;;;;;48.43;26.40;;;9.50;99.90;;;;;;5107566;28;20169;-76
2021/12/16 01:01:29;;;;;;;53.40;27.60;;;9.50;99.90;;;;;;5114593;28;20196;-77
2021/12/16 01:04:40;;;;;;;54.10;26.90;;;9.40;99.90;;;;;;5112389;28;20178;-77
2021/12/16 01:07:15;;;;;;;53.20;26.30;;;9.40;99.90;;;;;;5113454;28;20189;-77
2021/12/16 01:37:46;;;;;;;50.73;25.03;;;9.30;99.90;;;;;;5112913;28;20264;-77
2021/12/16 01:42:41;;;;;;;41.40;20.40;;;9.30;99.90;;;;;;5113750;28;20173;-76
2021/12/16 01:48:14;;;;;;;38.50;20.30;;;9.20;99.90;;;;;;5112763;28;20166;-76
2021/12/16 01:50:46;;;;;;;38.30;19.17;;;9.20;99.90;;;;;;5112455;28;20257;-77
2021/12/16 01:56:03;;;;;;;35.47;18.83;;;9.30;99.90;;;;;;5112282;28;20221;-77
2021/12/16 01:58:32;;;;;;;35.37;18.20;;;9.20;99.90;;;;;;5105523;28;20182;-76
2021/12/16 02:01:15;;;;;;;31.00;17.33;;;9.20;99.90;;;;;;5108885;28;20189;-76
2021/12/16 02:03:47;;;;;;;35.13;18.63;;;9.30;99.90;;;;;;5108893;28;20181;-76
2021/12/16 02:08:51;;;;;;;34.17;17.63;;;9.30;99.90;;;;;;5112645;28;20641;-77
2021/12/16 02:35:43;;;;;;;21.67;11.63;;;9.30;99.90;;;;;;5111575;28;20185;-77
2021/12/16 02:38:11;;;;;;;22.50;12.30;;;9.20;99.90;;;;;;5111616;28;20165;-77
2021/12/16 02:40:37;;;;;;;24.10;12.47;;;9.30;99.90;;;;;;5107782;28;20273;-76
2021/12/16 02:48:37;;;;;;;17.97;11.53;;;9.30;99.90;;;;;;5111880;28;20265;-76
2021/12/16 02:51:08;;;;;;;19.37;10.97;;;9.30;99.90;;;;;;5103072;28;20170;-76
2021/12/16 02:53:36;;;;;;;23.83;12.17;;;9.30;99.90;;;;;;5110794;28;20634;-76
2021/12/16 02:56:02;;;;;;;19.93;10.80;;;9.30;99.90;;;;;;5102640;28;20665;-76
2021/12/16 02:58:27;;;;;;;17.83;10.23;;;9.30;99.90;;;;;;5110161;28;20185;-76
2021/12/16 03:01:00;;;;;;;18.77;11.10;;;9.30;99.90;;;;;;5110756;28;20440;-77
2021/12/16 03:03:26;;;;;;;16.83;10.07;;;9.30;99.90;;;;;;5106097;28;20177;-76
2021/12/16 03:05:51;;;;;;;19.83;10.87;;;9.30;99.90;;;;;;5109499;28;20213;-77
2021/12/16 03:08:17;;;;;;;19.83;11.40;;;9.20;99.90;;;;;;5104630;28;20170;-76
2021/12/16 03:13:43;;;;;;;19.13;10.27;;;9.20;99.90;;;;;;5091638;28;20179;-76
2021/12/16 03:16:30;;;;;;;20.60;11.03;;;9.30;99.90;;;;;;5083047;28;20289;-76
2021/12/16 03:21:29;;;;;;;20.53;10.87;;;9.20;99.90;;;;;;5090870;28;20174;-76
2021/12/16 03:30:25;;;;;;;19.73;10.80;;;9.20;99.90;;;;;;5090531;28;20251;-76
2021/12/16 03:33:11;;;;;;;22.73;11.00;;;9.20;99.90;;;;;;5105861;28;20527;-77
2021/12/16 03:35:52;;;;;;;13.40;9.07;;;9.20;99.90;;;;;;5103764;28;20194;-77
2021/12/16 03:38:19;;;;;;;19.70;10.37;;;9.30;99.90;;;;;;5101029;28;20638;-77
2021/12/16 03:40:44;;;;;;;23.17;12.03;;;9.20;99.90;;;;;;5090815;28;20584;-77
2021/12/16 03:43:17;;;;;;;22.47;10.37;;;9.20;99.90;;;;;;5102665;28;20179;-76
2021/12/16 03:48:43;;;;;;;20.77;9.80;;;9.30;99.90;;;;;;5094224;28;20178;-77
2021/12/16 03:51:33;;;;;;;19.63;10.27;;;9.30;99.90;;;;;;5103485;28;20220;-77
2021/12/16 03:54:10;;;;;;;17.27;10.67;;;9.30;99.90;;;;;;5110406;28;20492;-76
2021/12/16 03:56:37;;;;;;;20.93;10.00;;;9.30;99.90;;;;;;5092882;28;20194;-77
2021/12/16 03:59:06;;;;;;;16.53;10.07;;;9.30;99.90;;;;;;5094148;28;20655;-76
2021/12/16 04:01:32;;;;;;;18.70;10.17;;;9.20;99.90;;;;;;5094198;28;20610;-76
2021/12/16 04:03:58;;;;;;;18.87;9.97;;;9.20;99.90;;;;;;5101837;28;20228;-77
2021/12/16 04:06:26;;;;;;;19.57;10.37;;;9.30;99.90;;;;;;5117452;22;20217;-73
2021/12/16 04:08:53;;;;;;;22.30;10.77;;;9.30;99.90;;;;;;5096040;28;20717;-73
2021/12/16 04:11:23;;;;;;;19.97;10.93;;;9.20;99.90;;;;;;5096450;28;20253;-72
2021/12/16 04:13:55;;;;;;;17.27;11.23;;;9.30;99.90;;;;;;5096377;28;20170;-73
2021/12/16 04:16:25;;;;;;;19.63;11.80;;;9.20;99.90;;;;;;5096445;28;20292;-73
2021/12/16 04:18:50;;;;;;;20.67;11.37;;;9.20;99.90;;;;;;5114397;28;20616;-73
2021/12/16 04:21:19;;;;;;;17.37;10.83;;;9.20;99.90;;;;;;5096130;28;20170;-73
2021/12/16 04:23:46;;;;;;;20.57;11.00;;;9.20;99.90;;;;;;5114624;28;20568;-75
2021/12/16 04:26:12;;;;;;;17.77;11.07;;;9.20;99.90;;;;;;5096215;28;20209;-73
2021/12/16 04:28:37;;;;;;;17.63;10.47;;;9.20;99.90;;;;;;5114453;28;20629;-74
2021/12/16 04:31:03;;;;;;;23.37;11.20;;;9.30;99.90;;;;;;5096133;28;20174;-74
2021/12/16 04:33:29;;;;;;;18.00;10.83;;;9.20;99.90;;;;;;5096282;28;20770;-73
2021/12/16 04:35:54;;;;;;;20.13;11.20;;;9.20;99.90;;;;;;5096097;28;20592;-73
2021/12/16 04:38:20;;;;;;;18.27;10.40;;;9.20;99.90;;;;;;5095972;28;20515;-73
2021/12/16 04:40:47;;;;;;;20.30;11.37;;;9.30;99.90;;;;;;5096084;28;20260;-73
2021/12/16 04:43:19;;;;;;;22.50;11.60;;;9.20;99.90;;;;;;5096471;28;20579;-73
2021/12/16 04:45:47;;;;;;;20.50;10.57;;;9.30;99.90;;;;;;5096125;28;20569;-73
2021/12/16 04:48:13;;;;;;;17.00;10.57;;;9.20;99.90;;;;;;5096355;28;20638;-73
2021/12/16 04:50:38;;;;;;;21.80;11.83;;;9.10;99.90;;;;;;5096239;28;20174;-74
2021/12/16 04:53:04;;;;;;;17.37;11.00;;;9.10;99.90;;;;;;5097300;28;20177;-73
2021/12/16 04:55:30;;;;;;;23.23;11.47;;;9.10;99.90;;;;;;5115279;28;20165;-73
2021/12/16 04:57:55;;;;;;;20.03;11.03;;;9.10;99.90;;;;;;5116285;28;20168;-74
2021/12/16 05:00:24;;;;;;;19.30;11.03;;;9.10;99.90;;;;;;5096938;28;20230;-73
2021/12/16 05:02:51;;;;;;;18.50;11.07;;;9.10;99.90;;;;;;5114715;28;20162;-73
2021/12/16 05:05:18;;;;;;;21.73;11.10;;;9.10;99.90;;;;;;5096829;28;20225;-73
2021/12/16 05:07:47;;;;;;;18.73;11.60;;;9.10;99.90;;;;;;5095886;28;20293;-77
2021/12/16 05:10:14;;;;;;;22.17;11.47;;;9.00;99.90;;;;;;5096131;28;20176;-73
2021/12/16 05:12:44;;;;;;;23.30;12.20;;;9.10;99.90;;;;;;5096136;28;20223;-74
2021/12/16 05:15:15;;;;;;;21.73;11.93;;;9.10;99.90;;;;;;5096156;28;20174;-73
2021/12/16 05:17:47;;;;;;;21.00;12.83;;;9.00;99.90;;;;;;5095355;28;20169;-73
2021/12/16 05:20:18;;;;;;;23.10;12.13;;;9.00;99.90;;;;;;5095435;28;20230;-74
2021/12/16 05:27:55;;;;;;;22.57;12.80;;;9.00;99.90;;;;;;5113232;28;20618;-73
2021/12/16 05:30:20;;;;;;;20.83;12.07;;;8.90;99.90;;;;;;5095145;28;20162;-74
2021/12/16 05:32:46;;;;;;;24.20;13.27;;;8.90;99.90;;;;;;5095249;28;20221;-73
2021/12/16 05:35:16;;;;;;;19.30;12.10;;;8.90;99.90;;;;;;5095329;28;20638;-72
2021/12/16 05:37:43;;;;;;;21.87;13.33;;;8.80;99.90;;;;;;5113805;28;20318;-73
2021/12/16 05:40:09;;;;;;;24.23;12.97;;;8.80;99.90;;;;;;5095228;28;20173;-73
2021/12/16 05:42:37;;;;;;;21.70;11.63;;;8.80;99.90;;;;;;5094865;28;20200;-73
2021/12/16 05:45:04;;;;;;;21.53;13.13;;;8.80;99.90;;;;;;5094657;28;20205;-73
2021/12/16 05:47:30;;;;;;;27.70;13.97;;;8.70;99.90;;;;;;5094665;28;20189;-73
2021/12/16 05:49:56;;;;;;;25.00;13.93;;;8.70;99.90;;;;;;5094347;28;20602;-76
2021/12/16 05:52:21;;;;;;;25.63;14.47;;;8.60;99.90;;;;;;5094822;28;20382;-73
2021/12/16 05:54:47;;;;;;;22.80;13.87;;;8.70;99.90;;;;;;5094485;28;20707;-73
2021/12/16 05:57:13;;;;;;;29.53;14.03;;;8.70;99.90;;;;;;5094721;28;20197;-73
2021/12/16 05:59:39;;;;;;;25.43;13.63;;;8.70;99.90;;;;;;5094580;28;20207;-73
2021/12/16 06:02:05;;;;;;;29.03;15.50;;;8.70;99.90;;;;;;5094490;28;20170;-73
2021/12/16 06:04:30;;;;;;;26.60;14.07;;;8.70;99.90;;;;;;5112548;28;20301;-73
2021/12/16 06:06:56;;;;;;;28.83;14.40;;;8.60;99.90;;;;;;5094335;28;20209;-73
2021/12/16 06:09:22;;;;;;;30.50;15.23;;;8.60;99.90;;;;;;5112480;28;20256;-73
2021/12/16 06:11:51;;;;;;;25.20;14.27;;;8.60;99.90;;;;;;5094398;28;20162;-74
2021/12/16 06:14:38;;;;;;;29.33;14.73;;;8.60;99.90;;;;;;5094885;28;20166;-73
2021/12/16 06:28:04;;;;;;;27.60;13.37;;;8.70;99.90;;;;;;5112494;28;20596;-75
2021/12/16 06:30:33;;;;;;;23.87;14.37;;;8.60;99.90;;;;;;5094642;28;20532;-73
2021/12/16 06:33:03;;;;;;;26.83;14.77;;;8.70;99.90;;;;;;5094571;28;20169;-72
2021/12/16 06:35:29;;;;;;;27.57;15.40;;;8.60;99.90;;;;;;5094735;28;20256;-75
2021/12/16 06:37:55;;;;;;;25.90;14.70;;;8.60;99.90;;;;;;5094018;28;20177;-73
2021/12/16 06:40:20;;;;;;;27.30;14.37;;;8.70;99.90;;;;;;5094179;28;20192;-72
2021/12/16 06:42:48;;;;;;;29.07;14.90;;;8.70;99.90;;;;;;5094315;28;20169;-72
2021/12/16 06:45:21;;;;;;;29.97;14.93;;;8.60;99.90;;;;;;5112269;28;20217;-73
2021/12/16 06:48:13;;;;;;;25.03;14.70;;;8.70;99.90;;;;;;5094227;28;20162;-73
2021/12/16 06:50:45;;;;;;;27.73;15.13;;;8.60;99.90;;;;;;5111911;28;20265;-72
2021/12/16 06:53:13;;;;;;;27.50;14.73;;;8.60;99.90;;;;;;5094465;28;20216;-73
2021/12/16 06:55:55;;;;;;;26.33;14.07;;;8.70;99.90;;;;;;5094082;28;20295;-73
2021/12/16 06:58:43;;;;;;;27.47;14.17;;;8.70;99.90;;;;;;5094140;28;20193;-73
2021/12/16 07:01:17;;;;;;;32.20;14.97;;;8.70;99.90;;;;;;5093970;28;20180;-74
2021/12/16 07:03:47;;;;;;;30.13;14.37;;;8.70;99.90;;;;;;5094543;28;20161;-76
2021/12/16 07:06:29;;;;;;;27.13;14.40;;;8.60;99.90;;;;;;5093726;28;20255;-74
2021/12/16 07:08:59;;;;;;;27.87;14.10;;;8.70;99.90;;;;;;5093691;28;20180;-77
2021/12/16 07:11:25;;;;;;;25.20;14.40;;;8.70;99.90;;;;;;5094220;28;20166;-73
2021/12/16 07:14:00;;;;;;;28.83;16.03;;;8.70;99.90;;;;;;5094279;28;20529;-76
2021/12/16 07:16:28;;;;;;;29.90;14.10;;;8.70;99.90;;;;;;5093847;28;20193;-73
2021/12/16 07:18:55;;;;;;;24.97;14.40;;;8.80;99.90;;;;;;5097837;28;20173;-73
2021/12/16 07:21:23;;;;;;;27.17;14.43;;;8.80;99.90;;;;;;5097846;28;20173;-72
2021/12/16 07:23:49;;;;;;;26.77;14.37;;;8.80;99.90;;;;;;5097900;28;20174;-73
2021/12/16 07:26:15;;;;;;;29.10;14.30;;;8.80;99.90;;;;;;5097347;28;20201;-72
2021/12/16 07:28:40;;;;;;;27.87;15.50;;;8.80;99.90;;;;;;5097459;28;20180;-73
2021/12/16 07:31:06;;;;;;;26.67;14.47;;;8.80;99.90;;;;;;5115863;28;20166;-76
2021/12/16 07:33:32;;;;;;;27.03;14.10;;;8.80;99.90;;;;;;5116036;28;20208;-73
2021/12/16 07:35:59;;;;;;;30.47;15.00;;;8.80;99.90;;;;;;5097375;28;20201;-73
2021/12/16 07:38:24;;;;;;;25.57;13.93;;;8.90;99.90;;;;;;5097582;28;20165;-73
2021/12/16 07:40:52;;;;;;;23.57;13.90;;;8.90;99.90;;;;;;5097740;28;20174;-73
2021/12/16 07:43:42;;;;;;;22.27;12.37;;;8.90;99.90;;;;;;5097937;28;20178;-73
2021/12/16 07:46:10;;;;;;;23.53;13.33;;;8.90;99.90;;;;;;5097603;28;20614;-71
2021/12/16 07:48:36;;;;;;;26.00;12.50;;;8.90;99.90;;;;;;5097332;28;20174;-73
2021/12/16 07:51:05;;;;;;;26.00;11.93;;;8.90;99.90;;;;;;5115893;28;20257;-74
2021/12/16 07:53:31;;;;;;;25.80;12.07;;;8.90;99.90;;;;;;5097616;28;20169;-73
2021/12/16 07:55:57;;;;;;;22.30;11.87;;;8.90;99.90;;;;;;5097818;28;20208;-72
2021/12/16 07:58:23;;;;;;;22.43;11.37;;;8.90;99.90;;;;;;5098131;28;20166;-73
2021/12/16 08:00:51;;;;;;;19.50;11.57;;;9.00;99.90;;;;;;5098109;28;20177;-72
2021/12/16 08:03:17;;;;;;;24.17;11.73;;;9.00;99.90;;;;;;5098153;28;20177;-72
2021/12/16 08:05:50;;;;;;;22.40;12.07;;;8.90;99.90;;;;;;5097802;28;20716;-72
2021/12/16 08:08:16;;;;;;;22.27;12.00;;;8.90;99.90;;;;;;5097902;28;20164;-71
2021/12/16 08:10:42;;;;;;;18.63;11.00;;;8.90;99.90;;;;;;5097976;28;20260;-72
2021/12/16 08:13:08;;;;;;;19.93;11.23;;;9.00;99.90;;;;;;5097827;28;20166;-72
2021/12/16 08:15:34;;;;;;;23.00;12.10;;;8.90;99.90;;;;;;5097362;28;20196;-73
2021/12/16 08:18:00;;;;;;;19.27;11.40;;;9.00;99.90;;;;;;5097248;28;20570;-73
2021/12/16 08:20:25;;;;;;;20.07;11.27;;;9.00;99.90;;;;;;5097163;28;20178;-75
2021/12/16 08:22:55;;;;;;;25.43;12.43;;;9.00;99.90;;;;;;5115387;28;20587;-72
2021/12/16 08:25:24;;;;;;;20.50;11.47;;;9.10;99.90;;;;;;5115712;28;20729;-72
2021/12/16 08:27:52;;;;;;;23.40;11.57;;;9.10;99.90;;;;;;5096868;28;20170;-74
2021/12/16 08:30:21;;;;;;;23.80;12.63;;;9.10;99.90;;;;;;5096932;28;20189;-72
2021/12/16 08:32:47;;;;;;;21.20;11.63;;;9.10;99.90;;;;;;5096976;28;20188;-72
2021/12/16 08:35:13;;;;;;;22.30;11.63;;;9.10;99.90;;;;;;5096723;28;20169;-73
2021/12/16 08:37:39;;;;;;;19.53;10.97;;;9.10;99.90;;;;;;5096449;28;20178;-73
2021/12/16 08:40:10;;;;;;;20.57;11.03;;;9.10;99.90;;;;;;5114890;28;20176;-72
2021/12/16 08:42:35;;;;;;;25.23;10.97;;;9.10;99.90;;;;;;5096686;28;20204;-72
2021/12/16 08:45:01;;;;;;;21.10;11.93;;;9.10;99.90;;;;;;5114597;28;20562;-75
2021/12/16 08:47:26;;;;;;;22.97;11.83;;;9.00;99.90;;;;;;5096586;28;20189;-72
2021/12/16 08:49:52;;;;;;;28.33;15.13;;;9.00;99.90;;;;;;5096322;28;20197;-71
2021/12/16 08:52:21;;;;;;;20.90;11.60;;;9.00;99.90;;;;;;5096682;28;20187;-73
2021/12/16 08:54:48;;;;;;;21.30;11.20;;;9.10;99.90;;;;;;5114902;28;20173;-73
2021/12/16 08:57:14;;;;;;;18.13;10.87;;;9.10;99.90;;;;;;5096667;28;20212;-75
2021/12/16 08:59:40;;;;;;;17.30;10.57;;;9.10;99.90;;;;;;5096415;28;20257;-72
2021/12/16 09:02:07;;;;;;;19.13;11.70;;;9.10;99.90;;;;;;5096224;28;20262;-73
2021/12/16 09:04:33;;;;;;;22.83;12.07;;;9.20;99.90;;;;;;5096395;28;20183;-73
2021/12/16 09:07:06;;;;;;;25.63;13.53;;;9.20;99.90;;;;;;5096012;28;20549;-73
2021/12/16 09:09:35;;;;;;;18.57;9.90;;;9.30;99.90;;;;;;5114751;28;20601;-73
2021/12/16 09:12:14;;;;;;;22.40;10.73;;;9.30;99.90;;;;;;5096574;28;20193;-75
2021/12/16 09:14:43;;;;;;;19.17;10.90;;;9.30;99.90;;;;;;5096670;28;20154;-73
2021/12/16 09:17:14;;;;;;;22.80;10.40;;;9.40;99.90;;;;;;5096119;28;20197;-73
2021/12/16 09:19:44;;;;;;;19.17;10.43;;;9.40;99.90;;;;;;5096464;28;20539;-73
2021/12/16 09:22:10;;;;;;;17.60;11.33;;;9.30;99.90;;;;;;5114590;28;20181;-73
2021/12/16 09:24:37;;;;;;;17.87;10.47;;;9.40;99.90;;;;;;5096347;28;20173;-73
2021/12/16 09:27:04;;;;;;;21.03;11.03;;;9.30;99.90;;;;;;5114206;28;20612;-73
2021/12/16 09:29:30;;;;;;;15.77;9.60;;;9.20;99.90;;;;;;5114049;28;20176;-73
2021/12/16 09:31:56;;;;;;;23.70;10.73;;;9.30;99.90;;;;;;5114398;28;20169;-73
2021/12/16 09:34:21;;;;;;;18.00;9.73;;;9.30;99.90;;;;;;5096257;28;20181;-73
2021/12/16 09:36:47;;;;;;;17.23;9.53;;;9.30;99.90;;;;;;5114192;28;20205;-73
2021/12/16 09:39:16;;;;;;;20.20;12.67;;;9.30;99.90;;;;;;5095882;28;20195;-73
2021/12/16 09:41:47;;;;;;;20.97;11.33;;;9.40;99.90;;;;;;5096649;28;20185;-73
2021/12/16 09:44:14;;;;;;;15.57;9.50;;;9.30;99.90;;;;;;5100077;28;20185;-73
2021/12/16 09:46:43;;;;;;;20.43;10.53;;;9.40;99.90;;;;;;5099288;28;20209;-73
2021/12/16 09:49:08;;;;;;;22.20;9.83;;;9.40;99.90;;;;;;5097656;28;20181;-73
2021/12/16 09:51:37;;;;;;;15.77;9.63;;;9.40;99.90;;;;;;5113446;28;20165;-73
2021/12/16 09:54:08;;;;;;;18.80;9.70;;;9.40;99.90;;;;;;5095594;28;20177;-72
2021/12/16 09:56:35;;;;;;;13.27;9.10;;;9.40;99.90;;;;;;5095658;28;20688;-73
2021/12/16 09:59:03;;;;;;;16.73;10.03;;;9.40;99.90;;;;;;5113357;28;20660;-73
2021/12/16 10:01:30;;;;;;;19.57;10.40;;;9.50;99.90;;;;;;5095224;28;20634;-72
2021/12/16 10:04:02;;;;;;;15.87;8.83;;;9.50;99.90;;;;;;5095074;28;20182;-73
2021/12/16 10:06:28;;;;;;;14.47;9.27;;;9.40;99.90;;;;;;5127767;22;20225;-77
2021/12/16 10:08:54;;;;;;;14.67;8.80;;;9.50;99.90;;;;;;5093293;28;20273;-77
2021/12/16 10:11:20;;;;;;;15.00;9.10;;;9.50;99.90;;;;;;5090498;28;20198;-77
2021/12/16 10:19:11;;;;;;;15.70;8.80;;;9.40;99.90;;;;;;5112201;28;20230;-77
2021/12/16 10:21:41;;;;;;;14.23;8.87;;;9.50;99.90;;;;;;5108049;28;20169;-77
2021/12/16 10:24:20;;;;;;;19.93;9.60;;;9.40;99.90;;;;;;5112134;28;20197;-77
2021/12/16 10:26:45;;;;;;;19.67;9.50;;;9.50;99.90;;;;;;5111585;28;20213;-77
2021/12/16 10:29:11;;;;;;;16.97;10.00;;;9.60;99.90;;;;;;5112252;28;20191;-76
2021/12/16 10:31:37;;;;;;;19.93;9.20;;;9.70;99.90;;;;;;5112282;28;20530;-77
2021/12/16 10:34:09;;;;;;;13.93;8.43;;;9.70;99.90;;;;;;5112350;28;20154;-77
2021/12/16 10:36:35;;;;;;;19.50;9.07;;;9.70;99.90;;;;;;5111751;28;20696;-77
2021/12/16 10:39:13;;;;;;;19.13;8.90;;;9.70;99.90;;;;;;5102717;28;20170;-77
2021/12/16 10:41:43;;;;;;;10.60;7.17;;;9.70;99.90;;;;;;5112152;28;20170;-77
2021/12/16 10:44:21;;;;;;;14.97;8.70;;;9.70;99.90;;;;;;5104322;28;20188;-77
2021/12/16 10:47:00;;;;;;;14.23;8.53;;;9.80;99.90;;;;;;5110696;28;20228;-77
2021/12/16 10:49:28;;;;;;;11.63;7.47;;;9.80;99.90;;;;;;5116106;28;20253;-76
2021/12/16 10:52:00;;;;;;;13.20;7.80;;;9.80;99.90;;;;;;5110604;28;20172;-77
2021/12/16 10:54:34;;;;;;;11.37;8.10;;;9.80;99.90;;;;;;5110655;28;20248;-76
2021/12/16 10:57:09;;;;;;;12.87;7.13;;;9.90;99.90;;;;;;5114586;28;20189;-77
2021/12/16 10:59:39;;;;;;;14.20;8.03;;;9.90;99.90;;;;;;5114273;28;20169;-77
2021/12/16 11:02:27;;;;;;;15.50;7.43;;;9.90;99.90;;;;;;5115793;28;20162;-77
2021/12/16 11:05:20;;;;;;;12.47;7.03;;;10.00;99.90;;;;;;5113967;28;20170;-77
2021/12/16 11:07:48;;;;;;;12.40;7.43;;;10.00;99.90;;;;;;5112474;28;20201;-76
2021/12/16 11:10:15;;;;;;;10.93;7.00;;;10.10;99.90;;;;;;5107833;28;20165;-77
2021/12/16 11:12:52;;;;;;;11.57;7.57;;;10.20;99.90;;;;;;5115548;28;20158;-76
2021/12/16 11:15:27;;;;;;;11.43;7.10;;;10.30;99.90;;;;;;5109212;28;20235;-77
2021/12/16 11:18:02;;;;;;;8.60;5.63;;;10.30;99.90;;;;;;5114116;28;20217;-77
2021/12/16 11:20:32;;;;;;;38.47;24.10;;;10.30;99.90;;;;;;5109697;28;20264;-77
2021/12/16 11:23:14;;;;;;;21.77;14.90;;;10.40;99.90;;;;;;5114557;28;20205;-76
2021/12/16 11:26:03;;;;;;;11.07;6.53;;;10.50;99.90;;;;;;5114083;28;20527;-77
2021/12/16 11:28:33;;;;;;;9.90;6.40;;;10.60;99.90;;;;;;5109735;28;20170;-77
2021/12/16 11:31:09;;;;;;;10.70;6.20;;;10.60;99.90;;;;;;5115093;28;20172;-76
2021/12/16 11:33:44;;;;;;;12.57;9.00;;;10.70;99.90;;;;;;5111048;28;20162;-77
2021/12/16 11:36:15;;;;;;;9.77;5.93;;;10.70;99.90;;;;;;5107162;28;20725;-77
2021/12/16 11:38:59;;;;;;;9.93;5.67;;;10.60;99.90;;;;;;5113784;28;20170;-77
2021/12/16 11:41:29;;;;;;;9.63;5.77;;;10.50;99.90;;;;;;5111424;28;20182;-77
2021/12/16 11:44:00;;;;;;;9.37;5.67;;;10.50;99.90;;;;;;5114188;28;20185;-77
2021/12/16 11:46:44;;;;;;;9.77;6.07;;;10.50;99.90;;;;;;5110424;28;20194;-77
2021/12/16 11:49:21;;;;;;;8.40;6.23;;;10.70;99.90;;;;;;5116503;28;20158;-77
2021/12/16 11:51:56;;;;;;;8.90;5.33;;;10.80;99.90;;;;;;5112257;28;20629;-77
2021/12/16 11:54:30;;;;;;;7.80;6.00;;;10.80;99.90;;;;;;5115579;28;20736;-77
2021/12/16 11:57:16;;;;;;;10.27;6.10;;;10.80;99.90;;;;;;5113795;28;20195;-77
2021/12/16 11:59:49;;;;;;;9.93;6.03;;;10.80;99.90;;;;;;5113478;28;20170;-77
2021/12/16 12:02:37;;;;;;;9.93;5.07;;;10.80;99.90;;;;;;5107571;28;20173;-77
2021/12/16 12:05:42;;;;;;;8.40;5.60;;;10.70;99.90;;;;;;5115062;28;20642;-77
2021/12/16 12:08:28;;;;;;;8.73;4.50;;;10.80;99.90;;;;;;5106458;28;20177;-77
2021/12/16 12:11:06;;;;;;;5.50;3.67;;;10.70;99.90;;;;;;5114002;28;20195;-76
2021/12/16 12:13:38;;;;;;;6.27;4.00;;;10.70;99.90;;;;;;5111392;28;20169;-77
2021/12/16 12:16:12;;;;;;;7.70;4.10;;;10.70;99.90;;;;;;5105725;28;20260;-77
2021/12/16 12:18:53;;;;;;;7.43;3.90;;;10.70;99.90;;;;;;5114466;28;20225;-77
2021/12/16 12:21:33;;;;;;;7.53;4.10;;;10.70;99.90;;;;;;5107732;28;20188;-77
2021/12/16 12:24:22;;;;;;;4.70;3.30;;;10.80;99.90;;;;;;5114280;28;20272;-77
2021/12/16 12:26:54;;;;;;;6.50;3.80;;;10.60;99.90;;;;;;5113654;28;20201;-77
2021/12/16 12:29:27;;;;;;;5.63;3.77;;;10.60;99.90;;;;;;5109422;27;20182;-77
2021/12/16 12:31:57;;;;;;;7.80;4.00;;;10.50;99.90;;;;;;5130176;27;20178;-77
2021/12/16 12:34:23;;;;;;;8.13;4.50;;;10.60;99.90;;;;;;5108478;28;20189;-75
2021/12/16 12:36:51;;;;;;;7.70;4.13;;;10.60;99.90;;;;;;5112362;28;20221;-74
2021/12/16 12:39:27;;;;;;;23.73;7.23;;;10.60;99.90;;;;;;5092032;28;20224;-73
2021/12/16 12:41:54;;;;;;;7.83;5.03;;;10.60;99.90;;;;;;5104408;28;20703;-75
2021/12/16 12:44:20;;;;;;;6.30;3.07;;;10.60;99.90;;;;;;5071230;28;20171;-76
2021/12/16 12:46:47;;;;;;;5.97;3.50;;;10.40;99.90;;;;;;5111238;27;20213;-79
2021/12/16 12:49:17;;;;;;;6.80;3.80;;;10.30;99.90;;;;;;5105812;28;20173;-74
2021/12/16 12:51:48;;;;;;;13.03;7.53;;;10.20;99.90;;;;;;5112353;28;20515;-74
2021/12/16 12:54:28;;;;;;;32.00;19.30;;;10.00;99.90;;;;;;5106494;28;20231;-73
2021/12/16 12:56:58;;;;;;;10.57;7.63;;;10.00;99.90;;;;;;5103058;28;20690;-74
2021/12/16 12:59:37;;;;;;;7.87;5.10;;;9.90;99.90;;;;;;5092570;28;20715;-73
2021/12/16 13:02:15;;;;;;;6.67;4.33;;;9.80;99.90;;;;;;5085017;28;20713;-75
2021/12/16 13:05:09;;;;;;;8.30;5.53;;;9.80;99.90;;;;;;5092010;28;20170;-74
2021/12/16 13:07:39;;;;;;;9.27;4.30;;;9.90;99.90;;;;;;5092461;28;20690;-73
2021/12/16 13:10:18;;;;;;;5.73;4.10;;;9.80;99.90;;;;;;5084281;28;20261;-75
2021/12/16 13:13:04;;;;;;;8.93;4.80;;;9.80;99.90;;;;;;5092182;28;20261;-76
2021/12/16 13:15:39;;;;;;;8.07;3.87;;;9.80;99.90;;;;;;5086425;28;20198;-76
2021/12/16 13:26:44;;;;;;;8.43;4.37;;;9.80;99.90;;;;;;5092467;28;20213;-73
2021/12/16 13:29:38;;;;;;;5.50;3.93;;;9.70;99.90;;;;;;5089323;28;20204;-75
2021/12/16 13:32:19;;;;;;;8.93;4.07;;;9.70;99.90;;;;;;5091749;28;20244;-75
2021/12/16 13:35:04;;;;;;;8.40;3.50;;;9.70;99.90;;;;;;5092165;28;20692;-76
2021/12/16 13:37:31;;;;;;;12.67;5.83;;;9.60;99.90;;;;;;5092103;28;20193;-76
2021/12/16 13:40:18;;;;;;;16.60;8.03;;;9.60;99.90;;;;;;5082124;28;20255;-75
2021/12/16 13:42:55;;;;;;;7.37;3.20;;;9.60;99.90;;;;;;5090554;28;20266;-75
2021/12/16 13:45:48;;;;;;;6.33;3.67;;;9.60;99.90;;;;;;5085467;28;20293;-76
2021/12/16 13:58:09;;;;;;;6.03;2.83;;;9.60;99.90;;;;;;5090494;28;20260;-75
2021/12/16 14:05:54;;;;;;;4.83;2.60;;;9.40;99.90;;;;;;5112189;28;20174;-75
2021/12/16 14:08:35;;;;;;;6.17;2.57;;;9.40;99.90;;;;;;5105443;28;20269;-75
2021/12/16 14:11:30;;;;;;;7.20;2.90;;;9.30;99.90;;;;;;5091554;28;20167;-73
2021/12/16 14:42:32;;;;;;;8.57;2.63;;;9.00;99.90;;;;;;5090807;28;20649;-72
2021/12/16 14:45:18;;;;;;;7.83;2.70;;;8.90;99.90;;;;;;5073210;28;20202;-71
2021/12/16 14:48:07;;;;;;;9.27;4.23;;;8.90;99.90;;;;;;5089317;28;20290;-72
2021/12/16 14:50:37;;;;;;;4.93;3.10;;;8.80;99.90;;;;;;5090504;28;20185;-70
2021/12/16 14:53:20;;;;;;;6.57;2.83;;;8.70;99.90;;;;;;5081994;28;20244;-72
2021/12/16 14:55:47;;;;;;;8.63;3.50;;;8.70;99.90;;;;;;5089369;28;20246;-71
2021/12/16 14:58:14;;;;;;;5.97;3.00;;;8.70;99.90;;;;;;5084027;28;20174;-72
2021/12/16 15:00:49;;;;;;;8.20;3.47;;;8.60;99.90;;;;;;5090261;28;20183;-74
2021/12/16 15:03:18;;;;;;;10.10;3.53;;;8.60;99.90;;;;;;5090835;28;20664;-74
2021/12/16 15:05:48;;;;;;;7.07;3.13;;;8.60;99.90;;;;;;5090412;28;20190;-78
2021/12/16 15:08:22;;;;;;;9.17;3.13;;;8.50;99.90;;;;;;5083334;28;20171;-70
2021/12/16 15:10:49;;;;;;;8.03;3.87;;;8.50;99.90;;;;;;5104034;28;20172;-70
2021/12/16 15:13:27;;;;;;;6.63;3.13;;;8.50;99.90;;;;;;5103193;28;20260;-70
2021/12/16 15:35:53;;;;;;;14.37;5.20;;;8.30;99.90;;;;;;5090334;28;20182;-75
2021/12/16 15:44:10;;;;;;;10.47;3.03;;;8.20;99.90;;;;;;5036530;28;20179;-77
2021/12/16 15:46:36;;;;;;;9.30;3.40;;;8.20;99.90;;;;;;5094091;28;20289;-75
2021/12/16 15:49:04;;;;;;;12.53;3.77;;;8.20;99.90;;;;;;5085395;28;20202;-76
2021/12/16 15:51:30;;;;;;;12.33;3.63;;;8.10;99.90;;;;;;5094388;28;20171;-77
2021/12/16 15:53:59;;;;;;;8.50;3.60;;;8.10;99.90;;;;;;5094072;28;20174;-77
2021/12/16 15:56:28;;;;;;;11.00;3.27;;;8.10;99.90;;;;;;5094205;28;20189;-76
2021/12/16 15:59:17;;;;;;;14.00;3.47;;;8.00;99.90;;;;;;5092353;28;20214;-77
2021/12/16 16:01:46;;;;;;;9.50;3.20;;;8.00;99.90;;;;;;5093839;28;20163;-73
2021/12/16 16:04:27;;;;;;;9.10;3.90;;;8.00;99.90;;;;;;5086329;28;20163;-74
2021/12/16 16:07:00;;;;;;;8.53;3.47;;;7.90;99.90;;;;;;5104497;23;20226;-74
2021/12/16 16:09:34;;;;;;;11.67;4.30;;;7.90;99.90;;;;;;5093586;28;20178;-73
2021/12/16 16:12:00;;;;;;;11.43;3.53;;;7.90;99.90;;;;;;5104929;28;20170;-74
2021/12/16 16:14:28;;;;;;;11.93;3.60;;;7.90;99.90;;;;;;5097362;28;20258;-73
2021/12/16 16:16:57;;;;;;;17.67;6.17;;;7.90;99.90;;;;;;5104452;28;20198;-73
2021/12/16 16:19:35;;;;;;;11.87;4.80;;;7.90;99.90;;;;;;5102396;28;20270;-73
2021/12/16 16:22:04;;;;;;;19.53;9.30;;;7.90;99.90;;;;;;5083839;28;20212;-73
2021/12/16 16:24:43;;;;;;;8.20;3.37;;;7.90;99.90;;;;;;5099133;28;20545;-74
2021/12/16 16:27:15;;;;;;;18.00;5.13;;;7.90;99.90;;;;;;5099043;28;20217;-75
2021/12/16 16:29:47;;;;;;;10.20;3.60;;;7.90;99.90;;;;;;5099614;28;20253;-74
2021/12/16 16:32:16;;;;;;;13.30;4.80;;;7.80;99.90;;;;;;5100936;28;20174;-73
2021/12/16 16:34:51;;;;;;;9.73;3.80;;;7.80;99.90;;;;;;5076496;28;20535;-74
2021/12/16 16:37:46;;;;;;;12.70;5.33;;;7.80;99.90;;;;;;5086945;28;20230;-73